createdAt,value
2023-02-24T00:02:04.392Z,6.00
2023-02-24T00:04:34.966Z,6.10
2023-02-24T00:07:03.065Z,6.00
2023-02-24T00:09:33.696Z,6.00
2023-02-24T00:12:02.440Z,6.00
2023-02-24T00:14:33.344Z,6.00
2023-02-24T00:19:34.286Z,6.00
2023-02-24T00:22:03.358Z,6.00
2023-02-24T00:27:01.589Z,6.00
2023-02-24T00:29:30.138Z,6.10
2023-02-24T00:34:34.192Z,6.10
2023-02-24T00:37:02.398Z,6.10
2023-02-24T00:39:30.682Z,6.10
2023-02-24T00:42:04.754Z,6.30
2023-02-24T00:44:37.878Z,6.10
2023-02-24T00:47:07.730Z,6.10
2023-02-24T00:49:42.765Z,6.20
2023-02-24T00:52:16.898Z,6.20
2023-02-24T00:54:46.691Z,6.10
2023-02-24T00:57:18.600Z,6.10
2023-02-24T00:59:51.451Z,6.70
2023-02-24T01:07:17.578Z,6.00
2023-02-24T01:09:45.139Z,6.00
2023-02-24T01:12:32.734Z,6.30
2023-02-24T01:17:31.016Z,6.10
2023-02-24T01:22:49.983Z,6.20
2023-02-24T01:25:20.418Z,6.10
2023-02-24T01:40:21.122Z,6.10
2023-02-24T01:42:49.587Z,6.10
2023-02-24T01:45:21.890Z,6.10
2023-02-24T01:47:50.535Z,6.70
2023-02-24T01:50:22.112Z,6.10
2023-02-24T01:52:53.018Z,6.10
2023-02-24T01:55:29.455Z,6.10
2023-02-24T01:57:59.201Z,6.10
2023-02-24T02:00:47.009Z,6.10
2023-02-24T02:03:27.269Z,6.10
2023-02-24T02:06:01.303Z,6.10
2023-02-24T02:11:02.738Z,6.00
2023-02-24T02:13:36.047Z,6.00
2023-02-24T02:16:11.340Z,6.10
2023-02-24T02:19:16.348Z,6.10
2023-02-24T02:21:55.657Z,6.00
2023-02-24T02:24:27.612Z,6.00
2023-02-24T02:27:29.511Z,6.50
2023-02-24T02:30:26.354Z,6.40
2023-02-24T02:33:31.298Z,6.40
2023-02-24T02:36:36.680Z,6.00
2023-02-24T02:39:22.210Z,6.00
2023-02-24T02:42:02.201Z,6.10
2023-02-24T02:44:47.812Z,6.00
2023-02-24T02:47:26.197Z,6.00
2023-02-24T02:50:01.332Z,6.10
2023-02-24T02:52:44.126Z,6.00
2023-02-24T02:55:41.365Z,6.00
2023-02-24T02:58:15.302Z,6.00
2023-02-24T03:01:01.953Z,6.00
2023-02-24T03:03:36.882Z,6.00
2023-02-24T03:06:13.863Z,6.00
2023-02-24T03:08:48.772Z,6.00
2023-02-24T03:11:20.970Z,6.00
2023-02-24T03:13:52.857Z,6.90
2023-02-24T03:16:23.625Z,6.00
2023-02-24T03:18:56.684Z,6.10
2023-02-24T03:21:33.084Z,6.00
2023-02-24T03:24:03.208Z,6.00
2023-02-24T03:26:53.287Z,6.10
2023-02-24T03:29:38.614Z,6.00
2023-02-24T03:32:18.848Z,6.40
2023-02-24T03:34:58.323Z,6.00
2023-02-24T03:37:30.491Z,5.80
2023-02-24T03:40:08.237Z,6.00
2023-02-24T03:45:06.497Z,6.00
2023-02-24T03:50:12.627Z,5.90
2023-02-24T03:53:04.343Z,6.00
2023-02-24T03:55:37.883Z,5.90
2023-02-24T03:58:19.306Z,5.90
2023-02-24T04:00:58.662Z,5.90
2023-02-24T04:03:48.316Z,5.90
2023-02-24T04:07:00.263Z,6.00
2023-02-24T04:12:21.503Z,5.90
2023-02-24T04:15:10.812Z,5.90
2023-02-24T04:17:52.762Z,5.90
2023-02-24T04:20:24.761Z,5.90
2023-02-24T04:23:02.180Z,6.00
2023-02-24T04:25:31.867Z,6.00
2023-02-24T04:28:01.998Z,5.80
2023-02-24T04:30:35.290Z,5.90
2023-02-24T04:33:03.280Z,5.60
2023-02-24T04:37:59.171Z,5.90
2023-02-24T04:42:55.710Z,6.20
2023-02-24T04:45:28.620Z,5.80
2023-02-24T04:48:02.298Z,7.30
2023-02-24T04:50:36.269Z,5.70
2023-02-24T04:53:09.826Z,8.00
2023-02-24T04:55:40.758Z,5.80
2023-02-24T04:58:12.142Z,5.90
2023-02-24T05:00:42.035Z,5.70
2023-02-24T05:03:12.341Z,5.80
2023-02-24T05:08:11.420Z,5.70
2023-02-24T05:10:44.701Z,5.70
2023-02-24T05:13:17.927Z,6.10
2023-02-24T05:15:47.904Z,5.70
2023-02-24T05:18:17.713Z,5.80
2023-02-24T05:21:07.175Z,5.70
2023-02-24T05:23:40.831Z,5.70
2023-02-24T05:26:10.470Z,5.70
2023-02-24T05:28:41.132Z,5.70
2023-02-24T05:31:15.244Z,5.70
2023-02-24T05:33:45.024Z,5.70
2023-02-24T05:36:17.564Z,5.70
2023-02-24T05:38:47.281Z,5.70
2023-02-24T05:41:19.005Z,5.70
2023-02-24T05:43:53.104Z,5.60
2023-02-24T05:46:29.570Z,5.70
2023-02-24T05:53:55.668Z,5.60
2023-02-24T05:56:23.701Z,5.60
2023-02-24T05:59:02.315Z,5.90
2023-02-24T06:01:35.282Z,5.60
2023-02-24T06:04:06.164Z,5.60
2023-02-24T06:06:35.245Z,5.70
2023-02-24T06:09:10.934Z,5.70
2023-02-24T06:11:43.241Z,5.70
2023-02-24T06:14:12.279Z,5.60
2023-02-24T06:16:43.936Z,5.70
2023-02-24T06:19:13.968Z,5.60
2023-02-24T06:21:42.526Z,6.00
2023-02-24T06:24:14.780Z,5.70
2023-02-24T06:26:45.808Z,5.70
2023-02-24T06:29:17.709Z,5.60
2023-02-24T06:31:45.800Z,5.80
2023-02-24T06:34:18.693Z,6.00
2023-02-24T06:36:49.118Z,5.70
2023-02-24T06:39:17.079Z,6.00
2023-02-24T06:41:45.160Z,5.90
2023-02-24T06:44:12.488Z,5.90
2023-02-24T06:51:37.464Z,5.90
2023-02-24T06:56:38.517Z,5.70
2023-02-24T06:59:07.009Z,5.60
2023-02-24T07:01:36.325Z,5.60
2023-02-24T07:04:18.006Z,5.50
2023-02-24T07:06:52.425Z,5.40
2023-02-24T07:09:22.910Z,5.30
2023-02-24T07:11:52.830Z,5.90
2023-02-24T07:14:22.284Z,5.30
2023-02-24T07:19:25.877Z,5.20
2023-02-24T07:22:00.543Z,5.20
2023-02-24T07:24:36.815Z,5.80
2023-02-24T07:27:23.310Z,5.30
2023-02-24T07:29:53.223Z,5.50
2023-02-24T07:32:23.107Z,5.50
2023-02-24T07:34:50.601Z,5.90
2023-02-24T07:37:20.475Z,5.50
2023-02-24T07:39:47.895Z,3.50
2023-02-24T07:42:15.497Z,5.40
2023-02-24T07:49:45.738Z,5.40
2023-02-24T07:54:41.361Z,5.30
2023-02-24T07:57:14.479Z,5.10
2023-02-24T08:22:47.036Z,4.40
2023-02-24T08:25:19.399Z,4.50
2023-02-24T08:28:08.460Z,4.40
2023-02-24T08:30:45.322Z,4.40
2023-02-24T08:33:23.193Z,4.30
2023-02-24T08:35:58.314Z,4.40
2023-02-24T08:40:59.309Z,4.40
2023-02-24T08:43:34.999Z,4.80
2023-02-24T08:48:38.891Z,4.60
2023-02-24T08:51:18.186Z,4.80
2023-02-24T08:56:24.444Z,4.70
2023-02-24T08:58:58.160Z,4.90
2023-02-24T09:01:35.062Z,4.90
2023-02-24T09:04:19.111Z,4.90
2023-02-24T09:07:10.748Z,5.50
2023-02-24T09:09:42.316Z,4.80
2023-02-24T09:12:22.338Z,4.90
2023-02-24T09:14:55.806Z,4.80
2023-02-24T09:17:41.387Z,4.60
2023-02-24T09:20:56.257Z,5.50
2023-02-24T09:25:57.411Z,4.70
2023-02-24T09:28:27.122Z,4.80
2023-02-24T09:31:00.386Z,4.90
2023-02-24T09:33:39.068Z,5.20
2023-02-24T09:36:20.100Z,4.80
2023-02-24T09:38:59.770Z,4.80
2023-02-24T09:41:58.744Z,4.30
2023-02-24T09:44:29.674Z,5.10
2023-02-24T09:47:31.596Z,4.90
2023-02-24T09:50:14.408Z,4.80
2023-02-24T09:55:26.648Z,4.80
2023-02-24T09:58:18.251Z,4.80
2023-02-24T10:01:21.229Z,4.70
2023-02-24T10:04:21.084Z,5.00
2023-02-24T10:07:14.509Z,4.60
2023-02-24T10:09:47.313Z,4.60
2023-02-24T10:12:17.134Z,4.00
2023-02-24T10:14:53.920Z,4.50
2023-02-24T10:17:40.407Z,4.50
2023-02-24T10:20:14.214Z,3.90
2023-02-24T10:22:51.040Z,4.80
2023-02-24T10:25:43.646Z,4.60
2023-02-24T10:28:36.081Z,4.50
2023-02-24T10:31:25.951Z,5.00
2023-02-24T10:34:07.983Z,4.70
2023-02-24T10:39:20.777Z,4.60
2023-02-24T10:41:57.872Z,4.60
2023-02-24T10:44:39.238Z,4.50
2023-02-24T10:47:14.485Z,4.50
2023-02-24T10:49:57.359Z,4.80
2023-02-24T10:52:37.448Z,4.60
2023-02-24T10:55:39.068Z,4.60
2023-02-24T10:58:07.752Z,4.70
2023-02-24T11:01:04.036Z,4.50
2023-02-24T11:06:41.640Z,4.40
2023-02-24T11:09:32.321Z,4.40
2023-02-24T11:12:22.584Z,4.80
2023-02-24T11:15:16.934Z,6.30
2023-02-24T11:17:57.198Z,4.50
2023-02-24T11:20:49.536Z,4.50
2023-02-24T11:23:24.765Z,4.40
2023-02-24T11:26:00.932Z,4.20
2023-02-24T11:28:56.038Z,3.70
2023-02-24T11:31:41.619Z,4.10
2023-02-24T11:34:29.252Z,4.00
2023-02-24T11:37:23.096Z,4.20
2023-02-24T11:40:04.708Z,4.00
2023-02-24T11:42:37.288Z,4.20
2023-02-24T11:47:41.310Z,4.40
2023-02-24T11:50:15.254Z,4.40
2023-02-24T11:52:46.908Z,4.50
2023-02-24T11:55:43.148Z,6.70
2023-02-24T11:58:31.090Z,4.60
2023-02-24T12:01:09.655Z,4.60
2023-02-24T12:03:51.580Z,4.50
2023-02-24T12:06:30.849Z,4.40
2023-02-24T12:09:07.899Z,4.20
2023-02-24T12:12:13.398Z,5.80
2023-02-24T12:15:13.606Z,4.00
2023-02-24T12:17:58.147Z,3.90
2023-02-24T12:20:37.251Z,3.90
2023-02-24T12:23:24.240Z,4.20
2023-02-24T12:26:15.676Z,3.80
2023-02-24T12:29:09.831Z,3.80
2023-02-24T12:31:43.022Z,3.80
2023-02-24T12:34:22.733Z,3.70
2023-02-24T12:36:57.285Z,3.80
2023-02-24T12:39:33.886Z,4.30
2023-02-24T12:42:10.628Z,4.10
2023-02-24T12:45:03.838Z,4.20
2023-02-24T12:47:58.160Z,4.30
2023-02-24T12:50:28.660Z,4.30
2023-02-24T12:53:12.664Z,4.20
2023-02-24T12:55:56.527Z,4.20
2023-02-24T12:58:35.253Z,4.20
2023-02-24T13:01:14.615Z,4.10
2023-02-24T13:04:05.445Z,4.10
2023-02-24T13:06:51.273Z,4.20
2023-02-24T13:09:52.370Z,4.10
2023-02-24T13:12:29.191Z,4.00
2023-02-24T13:14:56.901Z,4.00
2023-02-24T13:17:29.637Z,4.00
2023-02-24T13:19:57.253Z,4.10
2023-02-24T13:22:31.613Z,4.70
2023-02-24T13:25:18.327Z,4.40
2023-02-24T13:27:57.290Z,4.60
2023-02-24T13:30:26.403Z,4.50
2023-02-24T13:33:19.012Z,4.30
2023-02-24T13:35:48.775Z,4.30
2023-02-24T13:38:30.583Z,4.30
2023-02-24T13:41:27.003Z,4.20
2023-02-24T13:44:17.958Z,4.20
2023-02-24T13:47:03.196Z,4.20
2023-02-24T13:49:35.853Z,4.00
2023-02-24T13:52:15.865Z,5.40
2023-02-24T13:55:18.973Z,4.10
2023-02-24T13:57:55.190Z,4.20
2023-02-24T14:00:28.553Z,4.30
2023-02-24T14:02:56.251Z,4.30
2023-02-24T14:05:31.918Z,4.30
2023-02-24T14:08:00.182Z,5.90
2023-02-24T14:10:34.888Z,4.40
2023-02-24T14:13:19.797Z,4.60
2023-02-24T14:15:47.915Z,4.40
2023-02-24T14:18:25.644Z,4.40
2023-02-24T14:20:54.816Z,4.40
2023-02-24T14:23:26.212Z,6.10
2023-02-24T14:26:02.873Z,4.40
2023-02-24T14:28:32.636Z,4.40
2023-02-24T14:31:06.132Z,4.60
2023-02-24T14:33:38.068Z,4.50
2023-02-24T14:36:14.105Z,4.60
2023-02-24T14:38:42.088Z,4.60
2023-02-24T14:41:23.152Z,4.80
2023-02-24T14:43:52.399Z,5.60
2023-02-24T14:46:21.065Z,4.90
2023-02-24T14:48:54.634Z,4.80
2023-02-24T14:51:36.841Z,4.80
2023-02-24T14:54:09.425Z,4.90
2023-02-24T14:56:37.592Z,4.80
2023-02-24T14:59:21.922Z,5.60
2023-02-24T15:01:52.985Z,4.80
2023-02-24T15:04:26.146Z,4.60
2023-02-24T15:06:53.916Z,4.60
2023-02-24T15:09:28.172Z,4.50
2023-02-24T15:11:56.670Z,4.50
2023-02-24T15:14:25.495Z,4.40
2023-02-24T15:17:03.728Z,4.40
2023-02-24T15:19:37.539Z,4.40
2023-02-24T15:22:29.404Z,4.70
2023-02-24T15:25:16.118Z,4.30
2023-02-24T15:27:57.250Z,4.70
2023-02-24T15:31:00.272Z,4.20
2023-02-24T15:33:42.177Z,4.10
2023-02-24T15:36:17.547Z,4.00
2023-02-24T15:38:45.956Z,4.10
2023-02-24T15:41:14.390Z,4.00
2023-02-24T15:43:48.108Z,4.00
2023-02-24T15:46:33.401Z,4.00
2023-02-24T15:49:05.054Z,4.10
2023-02-24T15:51:35.241Z,4.10
2023-02-24T15:54:04.927Z,4.10
2023-02-24T15:56:34.707Z,4.00
2023-02-24T15:59:02.737Z,4.00
2023-02-24T16:01:31.181Z,4.50
2023-02-24T16:04:00.176Z,4.00
2023-02-24T16:06:29.253Z,5.50
2023-02-24T16:08:57.868Z,4.00
2023-02-24T16:11:28.931Z,3.90
2023-02-24T16:14:00.672Z,4.00
2023-02-24T16:16:28.052Z,3.90
2023-02-24T16:18:56.807Z,3.90
2023-02-24T16:21:24.178Z,3.90
2023-02-24T16:23:51.853Z,3.90
2023-02-24T16:26:23.253Z,3.80
2023-02-24T16:28:57.236Z,3.80
2023-02-24T16:31:26.335Z,3.80
2023-02-24T16:33:55.963Z,3.80
2023-02-24T16:36:25.305Z,3.80
2023-02-24T16:38:53.590Z,3.70
2023-02-24T16:41:21.167Z,3.80
2023-02-24T16:43:48.967Z,3.80
2023-02-24T16:46:24.990Z,3.80
2023-02-24T16:48:53.888Z,3.80
2023-02-24T16:51:23.113Z,3.80
2023-02-24T16:53:51.467Z,3.80
2023-02-24T16:56:19.975Z,3.70
2023-02-24T16:58:48.576Z,3.70
2023-02-24T17:01:21.605Z,3.80
2023-02-24T17:03:54.658Z,3.70
2023-02-24T17:06:25.386Z,3.70
2023-02-24T17:08:53.831Z,3.70
2023-02-24T17:11:24.646Z,4.60
2023-02-24T17:13:52.321Z,3.80
2023-02-24T17:16:20.607Z,3.80
2023-02-24T17:18:48.582Z,3.80
2023-02-24T17:21:18.687Z,3.80
2023-02-24T17:23:46.663Z,3.80
2023-02-24T17:26:16.040Z,3.80
2023-02-24T17:28:44.332Z,3.80
2023-02-24T17:31:12.732Z,3.90
2023-02-24T17:33:41.764Z,3.90
2023-02-24T17:36:09.503Z,3.80
2023-02-24T17:38:38.183Z,3.80
2023-02-24T17:41:05.839Z,3.90
2023-02-24T17:43:33.842Z,3.90
2023-02-24T17:46:04.510Z,3.80
2023-02-24T17:48:34.070Z,3.80
2023-02-24T17:51:02.703Z,3.90
2023-02-24T17:53:31.472Z,3.80
2023-02-24T17:56:07.163Z,3.80
2023-02-24T17:58:36.318Z,3.80
2023-02-24T18:01:06.091Z,4.20
2023-02-24T18:03:36.535Z,3.90
2023-02-24T18:06:11.545Z,3.80
2023-02-24T18:08:41.129Z,3.80
2023-02-24T18:11:14.114Z,3.90
2023-02-24T18:13:42.568Z,3.90
2023-02-24T18:16:15.214Z,3.90
2023-02-24T18:18:43.733Z,3.90
2023-02-24T18:21:12.488Z,3.90
2023-02-24T18:23:40.880Z,3.90
2023-02-24T18:26:11.089Z,3.90
2023-02-24T18:28:39.593Z,3.90
2023-02-24T18:31:16.817Z,3.90
2023-02-24T18:33:45.478Z,4.00
2023-02-24T18:36:14.628Z,3.90
2023-02-24T18:38:43.749Z,3.90
2023-02-24T18:41:20.670Z,3.90
2023-02-24T18:43:52.497Z,3.90
2023-02-24T18:46:22.170Z,4.00
2023-02-24T18:48:50.935Z,3.90
2023-02-24T18:51:22.834Z,3.90
2023-02-24T18:53:52.950Z,3.90
2023-02-24T18:56:24.688Z,3.90
2023-02-24T18:58:59.409Z,3.90
2023-02-24T19:01:31.185Z,4.00
2023-02-24T19:04:00.167Z,3.90
2023-02-24T19:06:29.616Z,4.00
2023-02-24T19:09:02.272Z,3.90
2023-02-24T19:11:30.403Z,4.00
2023-02-24T19:13:58.980Z,4.00
2023-02-24T19:16:27.524Z,3.90
2023-02-24T19:18:57.517Z,3.90
2023-02-24T19:21:27.265Z,3.90
2023-02-24T19:23:55.479Z,3.90
2023-02-24T19:26:26.004Z,3.90
2023-02-24T19:28:54.856Z,3.90
2023-02-24T19:31:26.805Z,4.70
2023-02-24T19:33:56.806Z,3.90
2023-02-24T19:36:25.029Z,3.90
2023-02-24T19:38:54.655Z,3.90
2023-02-24T19:41:23.271Z,3.90
2023-02-24T19:43:52.261Z,3.90
2023-02-24T19:46:23.004Z,3.80
2023-02-24T19:48:53.514Z,3.80
2023-02-24T19:51:25.495Z,3.80
2023-02-24T19:54:05.403Z,3.80
2023-02-24T19:56:39.340Z,3.80
2023-02-24T19:59:10.863Z,3.80
2023-02-24T20:01:39.897Z,3.80
2023-02-24T20:04:10.765Z,3.90
2023-02-24T20:06:43.836Z,3.50
2023-02-24T20:09:19.112Z,3.80
2023-02-24T20:11:50.537Z,3.90
2023-02-24T20:14:21.281Z,3.80
2023-02-24T20:16:50.704Z,3.80
2023-02-24T20:19:20.821Z,3.80
2023-02-24T20:21:49.320Z,3.80
2023-02-24T20:24:29.356Z,3.80
2023-02-24T20:26:58.649Z,3.80
2023-02-24T20:29:30.206Z,3.80
2023-02-24T20:32:01.681Z,3.80
2023-02-24T20:34:31.758Z,3.80
2023-02-24T20:37:02.610Z,3.80
2023-02-24T20:39:34.561Z,3.70
2023-02-24T20:42:03.986Z,3.80
2023-02-24T20:44:33.979Z,3.80
2023-02-24T20:47:04.408Z,3.70
2023-02-24T20:49:34.497Z,3.70
2023-02-24T20:52:02.857Z,3.70
2023-02-24T20:54:31.943Z,3.70
2023-02-24T20:57:02.226Z,3.70
2023-02-24T20:59:32.103Z,3.70
2023-02-24T21:02:00.555Z,3.70
2023-02-24T21:04:31.848Z,3.60
2023-02-24T21:07:00.863Z,3.60
2023-02-24T21:09:37.457Z,3.60
2023-02-24T21:12:05.913Z,3.60
2023-02-24T21:14:38.289Z,3.60
2023-02-24T21:17:08.357Z,3.70
2023-02-24T21:19:37.309Z,3.60
2023-02-24T21:22:06.993Z,3.50
2023-02-24T21:24:36.336Z,3.60
2023-02-24T21:27:05.266Z,3.60
2023-02-24T21:29:35.001Z,3.60
2023-02-24T21:32:07.278Z,3.50
2023-02-24T21:34:38.245Z,3.50
2023-02-24T21:37:10.469Z,3.60
2023-02-24T21:39:39.018Z,3.50
2023-02-24T21:42:08.645Z,3.40
2023-02-24T21:44:44.213Z,3.50
2023-02-24T21:47:15.349Z,3.40
2023-02-24T21:49:46.727Z,3.40
2023-02-24T21:52:15.280Z,3.50
2023-02-24T21:54:45.160Z,3.40
2023-02-24T21:57:20.089Z,3.40
2023-02-24T21:59:50.737Z,3.40
2023-02-24T22:02:24.120Z,3.40
2023-02-24T22:07:41.841Z,3.40
2023-02-24T22:10:13.457Z,3.40
2023-02-24T22:12:42.354Z,3.40
2023-02-24T22:15:12.187Z,3.50
2023-02-24T22:17:50.374Z,3.50
2023-02-24T22:20:19.750Z,3.40
2023-02-24T22:22:48.596Z,3.40
2023-02-24T22:25:17.561Z,3.30
2023-02-24T22:27:45.445Z,3.20
2023-02-24T22:30:14.597Z,3.20
2023-02-24T22:32:43.261Z,3.20
2023-02-24T22:35:12.416Z,3.20
2023-02-24T22:37:40.858Z,3.20
2023-02-24T22:40:10.731Z,3.10
2023-02-24T22:42:38.522Z,3.10
2023-02-24T22:45:08.239Z,3.10
2023-02-24T22:47:37.004Z,3.00
2023-02-24T22:50:06.147Z,3.00
2023-02-24T22:52:34.616Z,3.00
2023-02-24T22:55:04.218Z,2.90
2023-02-24T22:57:36.333Z,3.00
2023-02-24T23:00:09.996Z,3.00
2023-02-24T23:02:39.012Z,3.00
2023-02-24T23:05:09.097Z,4.90
2023-02-24T23:07:37.903Z,3.10
2023-02-24T23:10:06.829Z,3.00
2023-02-24T23:12:36.418Z,3.10
2023-02-24T23:15:05.944Z,3.10
2023-02-24T23:17:34.327Z,3.10
2023-02-24T23:20:03.084Z,3.00
2023-02-24T23:22:33.738Z,3.00
2023-02-24T23:25:02.083Z,3.00
2023-02-24T23:27:29.851Z,3.10
2023-02-24T23:29:59.453Z,3.00
2023-02-24T23:32:28.134Z,3.00
2023-02-24T23:34:56.671Z,3.00
2023-02-24T23:37:24.499Z,3.00
2023-02-24T23:39:53.107Z,3.00
2023-02-24T23:42:21.787Z,3.00
2023-02-24T23:44:49.992Z,3.10
2023-02-24T23:47:17.800Z,3.10
2023-02-24T23:49:48.388Z,3.10
2023-02-24T23:52:16.456Z,3.10
2023-02-24T23:54:50.026Z,3.10
2023-02-24T23:57:18.335Z,3.10
2023-02-24T23:59:46.985Z,3.10
